Fort Abbas Weather



Fort Abbas's Current Weather

Temprature 34.95o scattered clouds

scattered clouds

Rain: 0 %

Min Temprature34.95o
Max Temprature34.95o
Humidity37
Wind Speed9.33 m/h
Sun Rise05:14:33
Sun Set19:11:30
Current Time: 05-Jul-2020 19:15:46
Lat/Lon: 29.19, 72.85




Fort Abbas's Geo Location



Fort Abbas's Weather Forecast

Time Overall Temp Min Temp Max Temp Humidity Wind Speed Rain
05-Jul-2020 (Sun)
20:00:00 light rain 39.240 34.140 39.240 29 10.37 m/h 82 %
23:00:00 light rain 37.020 35.070 37.020 35 7.43 m/h 281 %
06-Jul-2020 (Mon)
02:00:00 overcast clouds 35.250 34.640 35.250 39 9.34 m/h 0 %
05:00:00 overcast clouds 34.420 34.340 34.420 41 5.4 m/h 0 %
08:00:00 few clouds 35.330 35.330 35.330 39 1.12 m/h 0 %
11:00:00 scattered clouds 39.020 39.020 39.020 29 1.36 m/h 0 %
14:00:00 clear sky 42.080 42.080 42.080 21 0.95 m/h 0 %
17:00:00 few clouds 42.850 42.850 42.850 20 1.35 m/h 0 %
20:00:00 light rain 42.080 42.080 42.080 20 2.74 m/h 15 %
23:00:00 scattered clouds 37.910 37.910 37.910 34 9.53 m/h 0 %
07-Jul-2020 (Tue)
02:00:00 overcast clouds 36.760 36.760 36.760 35 7.07 m/h 0 %
05:00:00 overcast clouds 35.310 35.310 35.310 35 5.36 m/h 0 %
08:00:00 scattered clouds 38.160 38.160 38.160 27 3.46 m/h 0 %
11:00:00 light rain 40.990 40.990 40.990 23 1.89 m/h 14 %
14:00:00 few clouds 43.670 43.670 43.670 19 1.61 m/h 0 %
17:00:00 few clouds 44.300 44.300 44.300 17 1.36 m/h 0 %
20:00:00 broken clouds 41.490 41.490 41.490 24 6.86 m/h 0 %
23:00:00 scattered clouds 38.740 38.740 38.740 33 7.09 m/h 0 %
08-Jul-2020 (Wed)
02:00:00 broken clouds 37.580 37.580 37.580 36 5.89 m/h 0 %
05:00:00 scattered clouds 36.190 36.190 36.190 41 3.93 m/h 0 %
08:00:00 clear sky 37.920 37.920 37.920 36 4.79 m/h 0 %
11:00:00 clear sky 40.660 40.660 40.660 31 4.06 m/h 0 %
14:00:00 scattered clouds 42.200 42.200 42.200 27 2.42 m/h 0 %
17:00:00 broken clouds 42.300 42.300 42.300 26 3.14 m/h 0 %
20:00:00 light rain 38.820 38.820 38.820 34 0.46 m/h 139 %
23:00:00 light rain 38.640 38.640 38.640 35 6.46 m/h 14 %
09-Jul-2020 (Thu)
02:00:00 light rain 36.260 36.260 36.260 43 8.73 m/h 11 %
05:00:00 scattered clouds 35.020 35.020 35.020 47 8.28 m/h 0 %
08:00:00 clear sky 35.850 35.850 35.850 49 9.32 m/h 0 %
11:00:00 clear sky 39.650 39.650 39.650 37 8.79 m/h 0 %
14:00:00 clear sky 42.620 42.620 42.620 28 6.66 m/h 0 %
17:00:00 few clouds 42.610 42.610 42.610 26 6.82 m/h 0 %
20:00:00 clear sky 40.940 40.940 40.940 29 7 m/h 0 %
23:00:00 clear sky 37.140 37.140 37.140 42 10.3 m/h 0 %
10-Jul-2020 (Fri)
02:00:00 clear sky 35.570 35.570 35.570 49 10.28 m/h 0 %
05:00:00 scattered clouds 33.640 33.640 33.640 59 9.82 m/h 0 %
08:00:00 clear sky 34.270 34.270 34.270 58 8.69 m/h 0 %
11:00:00 clear sky 38.880 38.880 38.880 41 6.77 m/h 0 %
14:00:00 clear sky 42.450 42.450 42.450 30 5.7 m/h 0 %
17:00:00 clear sky 43.410 43.410 43.410 26 5.51 m/h 0 %

Famous Cities (60)